Al-Jouf, Saudi Arabia

11:33 PM AST on March 06, 2015 (GMT +0300)
Al Jouf | Change Station
CLOSE
Current Station
Airport
Location: Al-Jouf,
Elevation: 2260 ft
Nearby Weather Stations

Elev 2260 ft 29.79 °N, 40.10 °E | Updated 33 minutes ago

Clear
Clear
57 °F
Feels Like 57 °F
N
8
Wind Variable Wind from East

Today
High -- | Low -- °F
--% Chance of Precip.
Yesterday
High -- | Low -- °F
Precip. -- in
6:40 AM 6:21 PM
Full, 99% visible
Pressure 30.24 in
Visibility -9999.0 miles
Clouds
Dew Point 23 °F
Humidity 27%
Rainfall 0.00 in
Snow Depth Not available.
UV Not available.
Pollen Not available.
Air Quality Not available.
Flu Activity Not available.
METAR OESK 062000Z 08007KT CAVOK 14/M05 Q1024

More Conditions Fewer Conditions

Pressure 30.24 in
Visibility -9999.0 miles
Clouds
Dew Point 23 °F
Humidity 27%
Rainfall 0.00 in
Snow Depth Not available.
UV Not available.
Pollen Not available.
Air Quality Not available.
Flu Activity Not available.
METAR OESK 062000Z 08007KT CAVOK 14/M05 Q1024

More Conditions Fewer Conditions

10-Day Weather Forecast

Almanac

Astronomy

Mar. 06, 2015 Rise Set
Actual Time
Civil Twilight
Nautical Twilight
Astronomical Twilight
Moon
Length of Visible Light
Length of Day
Tomorrow will be .
, % of the Moon is Illuminated

Today's Extremes

Country Highs Country Lows

Community

WunderPhotos

Upload Photos

1,803,389 photos uploaded!

WunderBlogs® & News

Nearby

Air Quality

  Air Quality AQ Index Pollutant
Not available.

Snow Depth

Station Depth Elevation

Earthquake Activity

City Distance Mag. Time & Date
Minimum magnitude displayed is 2.5.

Coastal Water Temperatures

Place Temperature

Nearby Weather Stations